createdAt,value
2022-07-30T00:13:11.008Z,10.50
2022-07-30T00:33:35.310Z,13.05
2022-07-30T00:53:56.070Z,19.80
2022-07-30T01:14:16.654Z,25.83
2022-07-30T01:34:18.524Z,23.77
2022-07-30T01:54:20.415Z,17.45
2022-07-30T02:14:41.382Z,14.80
2022-07-30T02:34:43.762Z,12.40
2022-07-30T02:54:46.036Z,10.60
2022-07-30T03:14:47.920Z,6.68
2022-07-30T03:34:50.416Z,5.55
2022-07-30T03:54:52.192Z,4.30
2022-07-30T04:16:31.752Z,3.50
2022-07-30T04:35:50.629Z,4.20
2022-07-30T04:56:04.445Z,6.93
2022-07-30T05:16:06.494Z,6.88
2022-07-30T05:36:09.469Z,7.75
2022-07-30T05:56:13.806Z,8.95
2022-07-30T06:16:36.598Z,9.48
2022-07-30T06:36:38.848Z,10.35
2022-07-30T06:57:00.035Z,12.25
2022-07-30T07:17:20.622Z,10.40
2022-07-30T07:37:41.391Z,11.68
2022-07-30T08:18:22.259Z,11.98
2022-07-30T08:38:42.261Z,9.85
2022-07-30T08:58:45.181Z,9.32
2022-07-30T09:18:47.257Z,9.18
2022-07-30T09:38:49.531Z,7.82
2022-07-30T09:59:10.238Z,6.85
2022-07-30T10:19:41.913Z,7.57
2022-07-30T10:40:07.051Z,7.75
2022-07-30T11:00:28.029Z,6.97
2022-07-30T11:20:31.214Z,5.68
2022-07-30T11:40:33.387Z,5.60
2022-07-30T12:00:35.086Z,5.40
2022-07-30T12:20:37.003Z,5.38
2022-07-30T12:40:38.915Z,6.80
2022-07-30T13:00:59.930Z,6.60
2022-07-30T13:21:01.873Z,5.68
2022-07-30T13:41:06.694Z,5.32
2022-07-30T14:01:08.741Z,6.22
2022-07-30T14:21:10.869Z,5.70
2022-07-30T14:41:12.669Z,7.03
2022-07-30T15:01:15.750Z,5.63
2022-07-30T15:21:18.373Z,4.88
2022-07-30T15:41:20.608Z,4.20
2022-07-30T16:01:22.429Z,4.90
2022-07-30T16:21:24.261Z,5.07
2022-07-30T16:41:26.050Z,5.93
2022-07-30T17:01:27.743Z,6.65
2022-07-30T17:21:31.686Z,4.63
2022-07-30T17:41:33.468Z,4.82
2022-07-30T18:01:35.071Z,6.80
2022-07-30T18:21:38.533Z,7.15
2022-07-30T18:41:40.952Z,5.65
2022-07-30T19:01:42.796Z,7.93
2022-07-30T19:21:45.258Z,8.15
2022-07-30T19:41:47.982Z,8.57
2022-07-30T20:01:52.962Z,7.55
2022-07-30T20:22:13.593Z,5.93
2022-07-30T20:42:18.641Z,5.00
2022-07-30T21:22:45.248Z,6.57
2022-07-30T21:42:48.960Z,6.50
2022-07-30T22:02:52.810Z,6.70
2022-07-30T22:22:55.317Z,7.45
2022-07-30T22:42:57.485Z,7.03
2022-07-30T23:12:31.100Z,5.97
